sensor_id;sensor_type;location;lat;lon;timestamp;pressure;altitude;pressure_sealevel;temperature;humidity
43480;BME280;29067;35.492;-97.520;2023-09-07T00:02:19;97148.80;;;30.12;23.51
43480;BME280;29067;35.492;-97.520;2023-09-07T00:04:47;97146.87;;;28.72;25.17
43480;BME280;29067;35.492;-97.520;2023-09-07T00:07:15;97146.09;;;29.37;25.37
43480;BME280;29067;35.492;-97.520;2023-09-07T00:09:43;97148.36;;;30.94;24.65
43480;BME280;29067;35.492;-97.520;2023-09-07T00:12:12;97148.99;;;29.03;25.52
43480;BME280;29067;35.492;-97.520;2023-09-07T00:14:41;97148.03;;;29.87;25.74
43480;BME280;29067;35.492;-97.520;2023-09-07T00:17:09;97152.64;;;26.98;28.08
43480;BME280;29067;35.492;-97.520;2023-09-07T00:19:37;97149.96;;;28.74;27.09
43480;BME280;29067;35.492;-97.520;2023-09-07T00:22:06;97148.32;;;28.75;27.02
43480;BME280;29067;35.492;-97.520;2023-09-07T00:24:34;97144.60;;;29.22;26.96
43480;BME280;29067;35.492;-97.520;2023-09-07T00:27:03;97142.90;;;29.21;27.02
43480;BME280;29067;35.492;-97.520;2023-09-07T00:29:31;97148.10;;;28.36;27.50
43480;BME280;29067;35.492;-97.520;2023-09-07T00:32:00;97149.44;;;28.77;27.39
43480;BME280;29067;35.492;-97.520;2023-09-07T00:34:28;97151.17;;;29.35;27.29
43480;BME280;29067;35.492;-97.520;2023-09-07T00:36:57;97149.81;;;28.90;27.59
43480;BME280;29067;35.492;-97.520;2023-09-07T00:39:25;97148.44;;;29.14;27.25
43480;BME280;29067;35.492;-97.520;2023-09-07T00:41:52;97151.36;;;26.75;28.85
43480;BME280;29067;35.492;-97.520;2023-09-07T00:44:23;97153.58;;;28.18;28.82
43480;BME280;29067;35.492;-97.520;2023-09-07T00:46:51;97151.80;;;28.47;28.26
43480;BME280;29067;35.492;-97.520;2023-09-07T00:49:19;97152.25;;;28.30;28.16
43480;BME280;29067;35.492;-97.520;2023-09-07T00:51:47;97150.74;;;28.59;28.09
43480;BME280;29067;35.492;-97.520;2023-09-07T00:54:15;97149.01;;;28.58;27.68
43480;BME280;29067;35.492;-97.520;2023-09-07T00:56:46;97147.48;;;28.32;28.06
43480;BME280;29067;35.492;-97.520;2023-09-07T00:59:16;97145.14;;;28.18;28.29
43480;BME280;29067;35.492;-97.520;2023-09-07T01:01:45;97149.07;;;28.45;28.39
43480;BME280;29067;35.492;-97.520;2023-09-07T01:04:13;97150.87;;;27.69;29.07
43480;BME280;29067;35.492;-97.520;2023-09-07T01:06:46;97151.70;;;29.38;28.10
43480;BME280;29067;35.492;-97.520;2023-09-07T01:09:21;97152.10;;;30.26;27.25
43480;BME280;29067;35.492;-97.520;2023-09-07T01:11:49;97157.48;;;27.92;28.39
43480;BME280;29067;35.492;-97.520;2023-09-07T01:14:17;97152.64;;;29.62;27.83
43480;BME280;29067;35.492;-97.520;2023-09-07T01:16:45;97153.56;;;30.18;27.68
43480;BME280;29067;35.492;-97.520;2023-09-07T01:19:14;97153.78;;;30.39;27.35
43480;BME280;29067;35.492;-97.520;2023-09-07T01:21:41;97158.27;;;29.23;28.11
43480;BME280;29067;35.492;-97.520;2023-09-07T01:24:11;97160.70;;;30.40;26.80
43480;BME280;29067;35.492;-97.520;2023-09-07T01:26:41;97159.95;;;30.90;26.35
43480;BME280;29067;35.492;-97.520;2023-09-07T01:29:09;97160.86;;;30.89;26.46
43480;BME280;29067;35.492;-97.520;2023-09-07T01:31:38;97160.77;;;31.04;26.40
43480;BME280;29067;35.492;-97.520;2023-09-07T01:34:06;97159.85;;;29.72;27.04
43480;BME280;29067;35.492;-97.520;2023-09-07T01:36:34;97159.67;;;29.58;27.36
43480;BME280;29067;35.492;-97.520;2023-09-07T01:39:04;97160.68;;;29.84;27.11
43480;BME280;29067;35.492;-97.520;2023-09-07T01:41:33;97161.23;;;30.84;26.90
43480;BME280;29067;35.492;-97.520;2023-09-07T01:44:01;97164.09;;;30.75;27.13
43480;BME280;29067;35.492;-97.520;2023-09-07T01:46:29;97168.84;;;30.86;26.78
43480;BME280;29067;35.492;-97.520;2023-09-07T01:48:57;97170.96;;;31.06;26.88
43480;BME280;29067;35.492;-97.520;2023-09-07T01:51:25;97172.10;;;31.10;26.84
43480;BME280;29067;35.492;-97.520;2023-09-07T01:53:54;97176.61;;;31.40;26.70
43480;BME280;29067;35.492;-97.520;2023-09-07T01:56:24;97175.30;;;31.44;26.73
43480;BME280;29067;35.492;-97.520;2023-09-07T01:58:52;97171.07;;;31.49;26.69
43480;BME280;29067;35.492;-97.520;2023-09-07T02:01:22;97166.98;;;31.39;26.54
43480;BME280;29067;35.492;-97.520;2023-09-07T02:03:50;97165.50;;;31.59;27.18
43480;BME280;29067;35.492;-97.520;2023-09-07T02:06:18;97164.26;;;31.33;26.72
43480;BME280;29067;35.492;-97.520;2023-09-07T02:08:46;97164.30;;;30.75;27.45
43480;BME280;29067;35.492;-97.520;2023-09-07T02:11:15;97167.82;;;30.82;27.40
43480;BME280;29067;35.492;-97.520;2023-09-07T02:13:43;97168.88;;;30.92;27.61
43480;BME280;29067;35.492;-97.520;2023-09-07T02:16:11;97171.09;;;31.30;27.51
43480;BME280;29067;35.492;-97.520;2023-09-07T02:18:38;97175.87;;;31.31;27.51
43480;BME280;29067;35.492;-97.520;2023-09-07T02:21:07;97175.41;;;31.20;27.68
43480;BME280;29067;35.492;-97.520;2023-09-07T02:23:35;97178.83;;;31.39;27.54
43480;BME280;29067;35.492;-97.520;2023-09-07T02:26:03;97183.20;;;31.61;27.36
43480;BME280;29067;35.492;-97.520;2023-09-07T02:28:32;97183.69;;;30.97;27.59
43480;BME280;29067;35.492;-97.520;2023-09-07T02:31:04;97184.95;;;31.19;28.16
43480;BME280;29067;35.492;-97.520;2023-09-07T02:33:32;97188.13;;;31.32;28.29
43480;BME280;29067;35.492;-97.520;2023-09-07T02:36:01;97190.00;;;30.83;27.74
43480;BME280;29067;35.492;-97.520;2023-09-07T02:38:29;97192.18;;;30.68;28.17
43480;BME280;29067;35.492;-97.520;2023-09-07T02:40:57;97193.26;;;30.79;27.81
43480;BME280;29067;35.492;-97.520;2023-09-07T02:43:25;97192.17;;;30.15;28.39
43480;BME280;29067;35.492;-97.520;2023-09-07T02:45:53;97192.72;;;28.88;29.37
43480;BME280;29067;35.492;-97.520;2023-09-07T02:48:21;97190.91;;;29.65;28.93
43480;BME280;29067;35.492;-97.520;2023-09-07T02:50:49;97188.48;;;29.42;28.91
43480;BME280;29067;35.492;-97.520;2023-09-07T02:53:17;97191.22;;;29.49;29.65
43480;BME280;29067;35.492;-97.520;2023-09-07T02:55:45;97190.55;;;29.18;29.71
43480;BME280;29067;35.492;-97.520;2023-09-07T02:58:13;97189.03;;;29.53;29.32
43480;BME280;29067;35.492;-97.520;2023-09-07T03:00:43;97186.64;;;28.89;29.81
43480;BME280;29067;35.492;-97.520;2023-09-07T03:03:11;97181.64;;;29.96;29.82
43480;BME280;29067;35.492;-97.520;2023-09-07T03:05:40;97178.65;;;29.34;29.60
43480;BME280;29067;35.492;-97.520;2023-09-07T03:08:08;97179.00;;;29.68;29.66
43480;BME280;29067;35.492;-97.520;2023-09-07T03:10:36;97183.01;;;29.82;29.56
43480;BME280;29067;35.492;-97.520;2023-09-07T03:13:04;97187.22;;;29.25;29.96
43480;BME280;29067;35.492;-97.520;2023-09-07T03:15:33;97191.43;;;28.97;30.41
43480;BME280;29067;35.492;-97.520;2023-09-07T03:18:01;97191.45;;;29.63;30.28
43480;BME280;29067;35.492;-97.520;2023-09-07T03:20:29;97190.10;;;29.21;29.86
43480;BME280;29067;35.492;-97.520;2023-09-07T03:23:01;97189.16;;;29.27;30.10
43480;BME280;29067;35.492;-97.520;2023-09-07T03:25:29;97194.73;;;29.69;30.60
43480;BME280;29067;35.492;-97.520;2023-09-07T03:27:57;97197.69;;;29.46;29.79
43480;BME280;29067;35.492;-97.520;2023-09-07T03:30:25;97201.80;;;28.90;30.19
43480;BME280;29067;35.492;-97.520;2023-09-07T03:32:53;97207.62;;;28.92;30.09
43480;BME280;29067;35.492;-97.520;2023-09-07T03:35:21;97210.01;;;29.06;30.40
43480;BME280;29067;35.492;-97.520;2023-09-07T03:37:49;97209.63;;;28.91;31.25
43480;BME280;29067;35.492;-97.520;2023-09-07T03:40:17;97205.76;;;29.32;30.68
43480;BME280;29067;35.492;-97.520;2023-09-07T03:42:46;97200.46;;;29.18;30.78
43480;BME280;29067;35.492;-97.520;2023-09-07T03:45:16;97199.75;;;29.67;30.55
43480;BME280;29067;35.492;-97.520;2023-09-07T03:47:43;97198.45;;;29.08;30.97
43480;BME280;29067;35.492;-97.520;2023-09-07T03:50:12;97192.26;;;29.75;30.31
43480;BME280;29067;35.492;-97.520;2023-09-07T03:52:40;97192.51;;;29.59;30.68
43480;BME280;29067;35.492;-97.520;2023-09-07T03:55:09;97192.03;;;28.78;30.56
43480;BME280;29067;35.492;-97.520;2023-09-07T03:57:37;97191.38;;;29.42;30.32
43480;BME280;29067;35.492;-97.520;2023-09-07T04:00:07;97192.14;;;28.29;30.95
43480;BME280;29067;35.492;-97.520;2023-09-07T04:02:36;97182.28;;;29.67;30.55
43480;BME280;29067;35.492;-97.520;2023-09-07T04:05:05;97180.77;;;28.48;31.50
43480;BME280;29067;35.492;-97.520;2023-09-07T04:07:33;97174.26;;;29.01;30.80
43480;BME280;29067;35.492;-97.520;2023-09-07T04:10:01;97170.15;;;28.96;30.66
43480;BME280;29067;35.492;-97.520;2023-09-07T04:12:28;97172.48;;;28.79;30.49
43480;BME280;29067;35.492;-97.520;2023-09-07T04:15:05;97171.42;;;28.45;30.49
43480;BME280;29067;35.492;-97.520;2023-09-07T04:17:39;97171.52;;;28.61;30.68
43480;BME280;29067;35.492;-97.520;2023-09-07T04:20:08;97173.14;;;28.45;30.15
43480;BME280;29067;35.492;-97.520;2023-09-07T04:22:36;97172.77;;;29.39;29.65
43480;BME280;29067;35.492;-97.520;2023-09-07T04:25:05;97177.48;;;28.39;30.86
43480;BME280;29067;35.492;-97.520;2023-09-07T04:27:33;97176.78;;;28.81;29.88
43480;BME280;29067;35.492;-97.520;2023-09-07T04:30:08;97172.48;;;28.92;30.37
43480;BME280;29067;35.492;-97.520;2023-09-07T04:32:37;97172.05;;;28.00;30.89
43480;BME280;29067;35.492;-97.520;2023-09-07T04:35:10;97174.14;;;28.11;30.62
43480;BME280;29067;35.492;-97.520;2023-09-07T04:37:41;97168.52;;;28.84;29.94
43480;BME280;29067;35.492;-97.520;2023-09-07T04:40:10;97162.80;;;28.87;30.11
43480;BME280;29067;35.492;-97.520;2023-09-07T04:42:38;97164.08;;;28.35;29.93
43480;BME280;29067;35.492;-97.520;2023-09-07T04:45:07;97167.67;;;27.89;30.19
43480;BME280;29067;35.492;-97.520;2023-09-07T04:47:36;97169.67;;;27.28;30.73
43480;BME280;29067;35.492;-97.520;2023-09-07T04:50:06;97167.51;;;28.09;30.07
43480;BME280;29067;35.492;-97.520;2023-09-07T04:52:34;97169.10;;;27.60;30.18
43480;BME280;29067;35.492;-97.520;2023-09-07T04:55:08;97172.05;;;26.95;30.60
43480;BME280;29067;35.492;-97.520;2023-09-07T04:57:37;97164.72;;;27.55;30.02
43480;BME280;29067;35.492;-97.520;2023-09-07T05:00:07;97163.94;;;27.84;30.11
43480;BME280;29067;35.492;-97.520;2023-09-07T05:02:34;97170.27;;;27.97;30.22
43480;BME280;29067;35.492;-97.520;2023-09-07T05:05:04;97174.27;;;26.78;30.67
43480;BME280;29067;35.492;-97.520;2023-09-07T05:07:32;97167.80;;;27.53;29.99
43480;BME280;29067;35.492;-97.520;2023-09-07T05:10:06;97166.38;;;28.82;29.75
43480;BME280;29067;35.492;-97.520;2023-09-07T05:12:36;97166.51;;;26.97;30.33
43480;BME280;29067;35.492;-97.520;2023-09-07T05:15:05;97167.84;;;28.22;29.52
43480;BME280;29067;35.492;-97.520;2023-09-07T05:17:34;97172.81;;;27.95;30.36
43480;BME280;29067;35.492;-97.520;2023-09-07T05:20:02;97178.93;;;27.81;30.22
43480;BME280;29067;35.492;-97.520;2023-09-07T05:22:39;97172.15;;;28.52;30.05
43480;BME280;29067;35.492;-97.520;2023-09-07T05:25:07;97172.18;;;27.31;30.86
43480;BME280;29067;35.492;-97.520;2023-09-07T05:27:36;97175.50;;;27.72;30.54
43480;BME280;29067;35.492;-97.520;2023-09-07T05:30:10;97175.53;;;27.50;30.98
43480;BME280;29067;35.492;-97.520;2023-09-07T05:32:38;97172.96;;;28.25;31.01
43480;BME280;29067;35.492;-97.520;2023-09-07T05:35:12;97171.60;;;27.08;31.31
43480;BME280;29067;35.492;-97.520;2023-09-07T05:37:40;97178.69;;;27.24;31.15
43480;BME280;29067;35.492;-97.520;2023-09-07T05:40:08;97176.86;;;28.10;30.80
43480;BME280;29067;35.492;-97.520;2023-09-07T05:42:37;97182.29;;;27.32;31.60
43480;BME280;29067;35.492;-97.520;2023-09-07T05:45:07;97192.67;;;27.31;31.88
43480;BME280;29067;35.492;-97.520;2023-09-07T05:47:36;97191.61;;;27.55;31.74
43480;BME280;29067;35.492;-97.520;2023-09-07T05:50:10;97183.82;;;27.69;31.75
43480;BME280;29067;35.492;-97.520;2023-09-07T05:52:49;97179.89;;;28.15;31.61
43480;BME280;29067;35.492;-97.520;2023-09-07T05:55:18;97181.08;;;28.23;31.81
43480;BME280;29067;35.492;-97.520;2023-09-07T05:57:48;97180.91;;;27.93;31.52
43480;BME280;29067;35.492;-97.520;2023-09-07T06:00:16;97179.60;;;27.05;32.62
43480;BME280;29067;35.492;-97.520;2023-09-07T06:02:46;97175.64;;;28.07;32.51
43480;BME280;29067;35.492;-97.520;2023-09-07T06:05:20;97174.45;;;27.72;32.88
43480;BME280;29067;35.492;-97.520;2023-09-07T06:07:47;97175.60;;;26.88;32.72
43480;BME280;29067;35.492;-97.520;2023-09-07T06:10:16;97178.18;;;26.55;33.15
43480;BME280;29067;35.492;-97.520;2023-09-07T06:12:44;97176.21;;;27.05;33.31
43480;BME280;29067;35.492;-97.520;2023-09-07T06:15:12;97173.68;;;26.69;33.07
43480;BME280;29067;35.492;-97.520;2023-09-07T06:17:40;97178.99;;;25.93;33.94
43480;BME280;29067;35.492;-97.520;2023-09-07T06:20:10;97179.14;;;26.35;33.48
43480;BME280;29067;35.492;-97.520;2023-09-07T06:22:42;97178.60;;;27.02;33.26
43480;BME280;29067;35.492;-97.520;2023-09-07T06:25:15;97178.08;;;25.52;34.33
43480;BME280;29067;35.492;-97.520;2023-09-07T06:27:43;97178.84;;;24.82;35.24
43480;BME280;29067;35.492;-97.520;2023-09-07T06:30:11;97177.27;;;25.93;34.77
43480;BME280;29067;35.492;-97.520;2023-09-07T06:32:44;97168.22;;;24.49;36.07
43480;BME280;29067;35.492;-97.520;2023-09-07T06:35:12;97168.03;;;25.26;35.08
43480;BME280;29067;35.492;-97.520;2023-09-07T06:37:41;97176.34;;;25.31;35.80
43480;BME280;29067;35.492;-97.520;2023-09-07T06:40:10;97185.27;;;26.18;35.14
43480;BME280;29067;35.492;-97.520;2023-09-07T06:42:38;97182.39;;;25.78;35.11
43480;BME280;29067;35.492;-97.520;2023-09-07T06:45:07;97183.58;;;24.59;35.90
43480;BME280;29067;35.492;-97.520;2023-09-07T06:47:35;97183.66;;;26.08;34.97
43480;BME280;29067;35.492;-97.520;2023-09-07T06:50:11;97175.97;;;26.50;34.58
43480;BME280;29067;35.492;-97.520;2023-09-07T06:52:38;97175.24;;;25.93;34.27
43480;BME280;29067;35.492;-97.520;2023-09-07T06:55:07;97179.08;;;25.29;34.81
43480;BME280;29067;35.492;-97.520;2023-09-07T06:57:40;97178.60;;;25.92;34.30
43480;BME280;29067;35.492;-97.520;2023-09-07T07:00:10;97175.34;;;26.44;33.97
43480;BME280;29067;35.492;-97.520;2023-09-07T07:02:38;97173.64;;;25.62;34.28
43480;BME280;29067;35.492;-97.520;2023-09-07T07:05:07;97175.91;;;25.75;34.57
43480;BME280;29067;35.492;-97.520;2023-09-07T07:07:36;97172.09;;;24.59;35.65
43480;BME280;29067;35.492;-97.520;2023-09-07T07:10:06;97170.70;;;25.92;34.65
43480;BME280;29067;35.492;-97.520;2023-09-07T07:12:40;97170.81;;;25.92;34.72
43480;BME280;29067;35.492;-97.520;2023-09-07T07:15:10;97170.32;;;25.99;35.17
43480;BME280;29067;35.492;-97.520;2023-09-07T07:17:42;97169.55;;;25.29;35.66
43480;BME280;29067;35.492;-97.520;2023-09-07T07:20:11;97169.51;;;24.31;36.10
43480;BME280;29067;35.492;-97.520;2023-09-07T07:22:40;97172.37;;;25.46;35.72
43480;BME280;29067;35.492;-97.520;2023-09-07T07:25:08;97174.84;;;25.36;35.70
43480;BME280;29067;35.492;-97.520;2023-09-07T07:27:36;97171.94;;;26.09;35.23
43480;BME280;29067;35.492;-97.520;2023-09-07T07:30:05;97169.38;;;26.19;34.92
43480;BME280;29067;35.492;-97.520;2023-09-07T07:32:34;97171.62;;;25.98;35.08
43480;BME280;29067;35.492;-97.520;2023-09-07T07:35:08;97169.01;;;25.09;35.49
43480;BME280;29067;35.492;-97.520;2023-09-07T07:37:37;97174.77;;;26.85;34.29
43480;BME280;29067;35.492;-97.520;2023-09-07T07:40:06;97178.65;;;25.63;35.04
43480;BME280;29067;35.492;-97.520;2023-09-07T07:42:36;97176.92;;;24.22;36.39
43480;BME280;29067;35.492;-97.520;2023-09-07T07:45:10;97180.49;;;25.26;36.22
43480;BME280;29067;35.492;-97.520;2023-09-07T07:47:38;97181.80;;;24.42;36.72
43480;BME280;29067;35.492;-97.520;2023-09-07T07:50:12;97186.42;;;24.27;36.79
43480;BME280;29067;35.492;-97.520;2023-09-07T07:52:40;97187.48;;;23.60;37.27
43480;BME280;29067;35.492;-97.520;2023-09-07T07:55:10;97184.23;;;24.69;36.10
43480;BME280;29067;35.492;-97.520;2023-09-07T07:57:39;97187.03;;;25.02;35.97
43480;BME280;29067;35.492;-97.520;2023-09-07T08:00:08;97187.63;;;24.83;36.10
43480;BME280;29067;35.492;-97.520;2023-09-07T08:02:36;97187.88;;;25.52;35.64
43480;BME280;29067;35.492;-97.520;2023-09-07T08:05:10;97188.00;;;24.29;36.57
43480;BME280;29067;35.492;-97.520;2023-09-07T08:07:38;97183.84;;;24.66;36.26
43480;BME280;29067;35.492;-97.520;2023-09-07T08:10:07;97183.11;;;25.03;36.60
43480;BME280;29067;35.492;-97.520;2023-09-07T08:12:35;97185.09;;;24.50;36.69
43480;BME280;29067;35.492;-97.520;2023-09-07T08:15:03;97186.62;;;24.59;36.67
43480;BME280;29067;35.492;-97.520;2023-09-07T08:17:32;97184.87;;;24.75;37.15
43480;BME280;29067;35.492;-97.520;2023-09-07T08:20:00;97184.60;;;24.16;37.41
43480;BME280;29067;35.492;-97.520;2023-09-07T08:22:28;97187.08;;;24.90;37.27
43480;BME280;29067;35.492;-97.520;2023-09-07T08:24:57;97186.44;;;24.60;37.32
43480;BME280;29067;35.492;-97.520;2023-09-07T08:27:26;97183.99;;;24.48;37.04
43480;BME280;29067;35.492;-97.520;2023-09-07T08:29:54;97184.77;;;24.50;37.73
43480;BME280;29067;35.492;-97.520;2023-09-07T08:32:23;97178.86;;;25.00;36.87
43480;BME280;29067;35.492;-97.520;2023-09-07T08:34:51;97176.84;;;23.92;37.67
43480;BME280;29067;35.492;-97.520;2023-09-07T08:37:19;97175.81;;;25.08;37.39
43480;BME280;29067;35.492;-97.520;2023-09-07T08:39:47;97175.65;;;24.73;37.06
43480;BME280;29067;35.492;-97.520;2023-09-07T08:42:15;97172.71;;;24.38;37.73
43480;BME280;29067;35.492;-97.520;2023-09-07T08:44:45;97172.88;;;24.85;37.44
43480;BME280;29067;35.492;-97.520;2023-09-07T08:47:25;97169.48;;;25.14;37.38
43480;BME280;29067;35.492;-97.520;2023-09-07T08:49:56;97172.12;;;24.01;38.19
43480;BME280;29067;35.492;-97.520;2023-09-07T08:52:25;97169.23;;;24.55;37.66
43480;BME280;29067;35.492;-97.520;2023-09-07T08:54:54;97168.57;;;23.82;38.31
43480;BME280;29067;35.492;-97.520;2023-09-07T08:57:24;97167.31;;;23.81;38.44
43480;BME280;29067;35.492;-97.520;2023-09-07T08:59:52;97168.01;;;23.27;38.66
43480;BME280;29067;35.492;-97.520;2023-09-07T09:02:20;97168.82;;;22.97;38.81
43480;BME280;29067;35.492;-97.520;2023-09-07T09:04:48;97167.02;;;22.48;39.39
43480;BME280;29067;35.492;-97.520;2023-09-07T09:07:17;97163.24;;;23.60;38.56
43480;BME280;29067;35.492;-97.520;2023-09-07T09:09:45;97167.01;;;23.96;38.19
43480;BME280;29067;35.492;-97.520;2023-09-07T09:12:13;97167.24;;;23.34;38.40
43480;BME280;29067;35.492;-97.520;2023-09-07T09:14:54;97165.00;;;24.19;37.87
43480;BME280;29067;35.492;-97.520;2023-09-07T09:17:24;97167.88;;;23.22;38.59
43480;BME280;29067;35.492;-97.520;2023-09-07T09:19:52;97165.64;;;23.06;38.71
43480;BME280;29067;35.492;-97.520;2023-09-07T09:22:20;97159.22;;;24.68;37.34
43480;BME280;29067;35.492;-97.520;2023-09-07T09:24:50;97160.86;;;23.26;37.55
43480;BME280;29067;35.492;-97.520;2023-09-07T09:27:18;97162.35;;;23.98;37.28
43480;BME280;29067;35.492;-97.520;2023-09-07T09:29:46;97155.98;;;24.28;37.01
43480;BME280;29067;35.492;-97.520;2023-09-07T09:32:15;97157.90;;;23.82;37.29
43480;BME280;29067;35.492;-97.520;2023-09-07T09:34:44;97153.60;;;24.78;36.48
43480;BME280;29067;35.492;-97.520;2023-09-07T09:37:15;97157.49;;;23.66;37.06
43480;BME280;29067;35.492;-97.520;2023-09-07T09:39:43;97163.52;;;22.47;37.94
43480;BME280;29067;35.492;-97.520;2023-09-07T09:42:12;97163.71;;;24.01;36.88
43480;BME280;29067;35.492;-97.520;2023-09-07T09:44:41;97163.05;;;23.10;36.24
43480;BME280;29067;35.492;-97.520;2023-09-07T09:47:12;97162.72;;;23.93;36.28
43480;BME280;29067;35.492;-97.520;2023-09-07T09:49:41;97164.97;;;23.92;35.45
43480;BME280;29067;35.492;-97.520;2023-09-07T09:52:11;97165.33;;;22.97;36.26
43480;BME280;29067;35.492;-97.520;2023-09-07T09:54:44;97166.10;;;23.77;35.80
43480;BME280;29067;35.492;-97.520;2023-09-07T09:57:12;97164.17;;;23.94;36.07
43480;BME280;29067;35.492;-97.520;2023-09-07T09:59:41;97163.03;;;23.93;35.48
43480;BME280;29067;35.492;-97.520;2023-09-07T10:02:10;97162.11;;;23.82;35.98
43480;BME280;29067;35.492;-97.520;2023-09-07T10:04:39;97163.48;;;23.73;35.42
43480;BME280;29067;35.492;-97.520;2023-09-07T10:07:06;97164.74;;;24.24;35.46
43480;BME280;29067;35.492;-97.520;2023-09-07T10:09:34;97162.98;;;23.67;36.05
43480;BME280;29067;35.492;-97.520;2023-09-07T10:12:03;97163.57;;;23.97;35.38
43480;BME280;29067;35.492;-97.520;2023-09-07T10:14:38;97164.15;;;24.38;35.80
43480;BME280;29067;35.492;-97.520;2023-09-07T10:17:07;97165.63;;;24.54;35.07
43480;BME280;29067;35.492;-97.520;2023-09-07T10:19:35;97163.09;;;25.16;34.54
43480;BME280;29067;35.492;-97.520;2023-09-07T10:22:20;97163.99;;;24.83;35.12
43480;BME280;29067;35.492;-97.520;2023-09-07T10:24:57;97161.23;;;24.87;34.95
43480;BME280;29067;35.492;-97.520;2023-09-07T10:27:25;97161.38;;;24.23;35.87
43480;BME280;29067;35.492;-97.520;2023-09-07T10:29:53;97164.16;;;24.22;36.16
43480;BME280;29067;35.492;-97.520;2023-09-07T10:32:21;97163.87;;;23.93;35.83
43480;BME280;29067;35.492;-97.520;2023-09-07T10:34:49;97161.48;;;23.74;36.77
43480;BME280;29067;35.492;-97.520;2023-09-07T10:37:17;97159.88;;;24.28;36.11
43480;BME280;29067;35.492;-97.520;2023-09-07T10:39:46;97158.86;;;24.28;35.65
43480;BME280;29067;35.492;-97.520;2023-09-07T10:42:21;97161.09;;;24.50;35.25
43480;BME280;29067;35.492;-97.520;2023-09-07T10:44:49;97165.32;;;24.39;35.55
43480;BME280;29067;35.492;-97.520;2023-09-07T10:47:17;97168.60;;;24.60;35.22
43480;BME280;29067;35.492;-97.520;2023-09-07T10:49:45;97172.34;;;24.10;35.55
43480;BME280;29067;35.492;-97.520;2023-09-07T10:52:13;97173.45;;;24.77;34.93
43480;BME280;29067;35.492;-97.520;2023-09-07T10:54:41;97174.13;;;24.28;34.83
43480;BME280;29067;35.492;-97.520;2023-09-07T10:57:09;97180.55;;;24.42;34.82
43480;BME280;29067;35.492;-97.520;2023-09-07T10:59:44;97183.00;;;24.03;34.54
43480;BME280;29067;35.492;-97.520;2023-09-07T11:03:08;97183.91;;;24.63;34.37
43480;BME280;29067;35.492;-97.520;2023-09-07T11:05:37;97187.43;;;23.97;35.14
43480;BME280;29067;35.492;-97.520;2023-09-07T11:08:07;97184.75;;;23.98;35.52
43480;BME280;29067;35.492;-97.520;2023-09-07T11:10:36;97188.31;;;24.75;34.53
43480;BME280;29067;35.492;-97.520;2023-09-07T11:13:04;97189.05;;;23.61;36.18
43480;BME280;29067;35.492;-97.520;2023-09-07T11:15:33;97187.19;;;23.79;35.99
43480;BME280;29067;35.492;-97.520;2023-09-07T11:18:05;97183.63;;;24.32;35.56
43480;BME280;29067;35.492;-97.520;2023-09-07T11:20:34;97182.67;;;23.77;36.13
43480;BME280;29067;35.492;-97.520;2023-09-07T11:23:03;97184.86;;;24.06;35.73
43480;BME280;29067;35.492;-97.520;2023-09-07T11:25:35;97184.53;;;24.79;35.38
43480;BME280;29067;35.492;-97.520;2023-09-07T11:28:04;97188.24;;;22.43;36.02
43480;BME280;29067;35.492;-97.520;2023-09-07T11:30:33;97195.22;;;22.29;36.94
43480;BME280;29067;35.492;-97.520;2023-09-07T11:33:03;97202.79;;;23.60;36.33
43480;BME280;29067;35.492;-97.520;2023-09-07T11:35:32;97203.95;;;23.17;36.24
43480;BME280;29067;35.492;-97.520;2023-09-07T11:38:00;97201.42;;;22.67;36.66
43480;BME280;29067;35.492;-97.520;2023-09-07T11:40:28;97206.70;;;22.27;37.70
43480;BME280;29067;35.492;-97.520;2023-09-07T11:42:56;97211.51;;;22.25;36.80
43480;BME280;29067;35.492;-97.520;2023-09-07T11:45:25;97217.07;;;22.27;36.87
43480;BME280;29067;35.492;-97.520;2023-09-07T11:47:52;97224.85;;;20.79;39.00
43480;BME280;29067;35.492;-97.520;2023-09-07T11:50:22;97217.94;;;22.94;37.45
43480;BME280;29067;35.492;-97.520;2023-09-07T11:52:50;97214.93;;;24.03;36.68
43480;BME280;29067;35.492;-97.520;2023-09-07T11:55:19;97214.32;;;23.80;37.01
43480;BME280;29067;35.492;-97.520;2023-09-07T11:57:46;97216.49;;;23.79;37.46
43480;BME280;29067;35.492;-97.520;2023-09-07T12:00:15;97224.03;;;22.25;37.89
43480;BME280;29067;35.492;-97.520;2023-09-07T12:02:44;97231.18;;;21.43;38.87
43480;BME280;29067;35.492;-97.520;2023-09-07T12:05:12;97224.23;;;23.44;38.15
43480;BME280;29067;35.492;-97.520;2023-09-07T12:07:40;97227.49;;;23.48;39.03
43480;BME280;29067;35.492;-97.520;2023-09-07T12:10:08;97225.30;;;23.81;38.42
43480;BME280;29067;35.492;-97.520;2023-09-07T12:12:37;97225.81;;;22.81;38.71
43480;BME280;29067;35.492;-97.520;2023-09-07T12:15:06;97230.28;;;22.40;39.90
43480;BME280;29067;35.492;-97.520;2023-09-07T12:17:34;97234.29;;;22.39;38.22
43480;BME280;29067;35.492;-97.520;2023-09-07T12:20:02;97236.56;;;21.48;39.33
43480;BME280;29067;35.492;-97.520;2023-09-07T12:22:31;97235.59;;;21.51;38.83
43480;BME280;29067;35.492;-97.520;2023-09-07T12:24:59;97230.82;;;22.50;38.78
43480;BME280;29067;35.492;-97.520;2023-09-07T12:27:27;97230.46;;;21.65;39.15
43480;BME280;29067;35.492;-97.520;2023-09-07T12:29:55;97234.79;;;21.58;38.93
43480;BME280;29067;35.492;-97.520;2023-09-07T12:32:23;97239.12;;;22.83;38.71
43480;BME280;29067;35.492;-97.520;2023-09-07T12:34:51;97235.85;;;21.56;39.51
43480;BME280;29067;35.492;-97.520;2023-09-07T12:37:19;97227.79;;;21.66;39.28
43480;BME280;29067;35.492;-97.520;2023-09-07T12:39:47;97234.83;;;22.67;38.54
43480;BME280;29067;35.492;-97.520;2023-09-07T12:42:15;97241.13;;;22.07;39.52
43480;BME280;29067;35.492;-97.520;2023-09-07T12:44:49;97232.53;;;23.03;38.44
43480;BME280;29067;35.492;-97.520;2023-09-07T12:47:17;97230.69;;;22.74;37.70
43480;BME280;29067;35.492;-97.520;2023-09-07T12:49:45;97231.41;;;22.64;38.14
43480;BME280;29067;35.492;-97.520;2023-09-07T12:52:13;97229.20;;;22.41;37.82